Time;durP1;ratioP1;P1;durP2;ratioP2;P2;SDS_P1;SDS_P2;PMS_P1;PMS_P2;Temp;Humidity;BMP_temperature;BMP_pressure;BME280_temperature;BME280_humidity;BME280_pressure;Samples;Min_cycle;Max_cycle;Signal;HPM_P1;HPM_P2
2021/09/28 00:00:35;;;;;;;23.55;19.42;;;;;;;18.34;100.00;100436.31;5134290;27;20429;-68
2021/09/28 00:03:01;;;;;;;23.02;19.45;;;;;;;18.33;100.00;100435.47;5134065;27;20023;-68
2021/09/28 00:05:27;;;;;;;26.95;20.55;;;;;;;18.34;100.00;100439.88;5134024;27;20079;-68
2021/09/28 00:07:53;;;;;;;21.08;18.77;;;;;;;18.34;100.00;100430.91;5133900;27;20427;-68
2021/09/28 00:10:19;;;;;;;23.63;20.15;;;;;;;18.32;100.00;100431.06;5133869;27;20111;-68
2021/09/28 00:12:45;;;;;;;26.77;20.73;;;;;;;18.29;100.00;100431.44;5134086;27;20490;-68
2021/09/28 00:15:13;;;;;;;26.80;20.48;;;;;;;18.20;100.00;100418.94;5132333;27;20031;-68
2021/09/28 00:17:38;;;;;;;27.83;21.02;;;;;;;18.26;100.00;100429.09;5133636;27;20447;-68
2021/09/28 00:20:06;;;;;;;25.25;21.25;;;;;;;18.25;100.00;100423.84;5133778;27;20027;-68
2021/09/28 00:22:31;;;;;;;24.00;20.95;;;;;;;18.24;100.00;100417.53;5133563;27;20038;-68
2021/09/28 00:24:57;;;;;;;27.73;21.85;;;;;;;18.25;100.00;100421.94;5133496;27;20527;-68
2021/09/28 00:27:23;;;;;;;31.33;22.98;;;;;;;18.24;100.00;100420.25;5132517;27;20027;-68
2021/09/28 00:29:48;;;;;;;29.50;23.27;;;;;;;18.26;100.00;100425.50;5133809;27;20453;-68
2021/09/28 00:32:14;;;;;;;28.98;24.00;;;;;;;18.25;100.00;100431.97;5133549;27;20080;-68
2021/09/28 00:34:40;;;;;;;25.55;21.10;;;;;;;18.20;100.00;100421.66;5133698;27;20030;-68
2021/09/28 00:37:06;;;;;;;28.90;22.55;;;;;;;18.21;100.00;100423.34;5133109;27;20149;-68
2021/09/28 00:39:32;;;;;;;28.92;22.10;;;;;;;18.16;100.00;100420.34;5131382;27;20031;-68
2021/09/28 00:41:58;;;;;;;27.85;22.85;;;;;;;18.13;100.00;100417.97;5133272;27;20027;-68
2021/09/28 00:44:44;;;;;;;31.95;23.95;;;;;;;18.09;100.00;100413.94;5133540;27;20291;-68
2021/09/28 00:47:11;;;;;;;29.13;22.98;;;;;;;18.08;100.00;100414.13;5132986;27;20038;-68
2021/09/28 00:49:45;;;;;;;31.88;23.55;;;;;;;18.02;100.00;100404.81;5133156;27;20050;-68
2021/09/28 00:52:13;;;;;;;29.10;23.65;;;;;;;18.03;100.00;100414.66;5133087;27;20110;-68
2021/09/28 00:54:39;;;;;;;28.80;24.77;;;;;;;18.04;100.00;100410.91;5133117;27;20035;-68
2021/09/28 00:57:06;;;;;;;29.70;23.92;;;;;;;18.03;100.00;100422.81;5133071;27;20385;-66
2021/09/28 00:59:35;;;;;;;33.67;24.20;;;;;;;18.02;100.00;100410.22;5132942;27;20031;-69
2021/09/28 01:02:11;;;;;;;31.02;23.65;;;;;;;18.01;100.00;100413.97;5132774;27;20026;-67
2021/09/28 01:04:37;;;;;;;30.25;24.05;;;;;;;17.99;100.00;100422.31;5132947;27;20027;-67
2021/09/28 01:07:05;;;;;;;33.70;24.80;;;;;;;17.99;100.00;100416.88;5132674;27;20023;-67
2021/09/28 01:09:32;;;;;;;33.08;25.48;;;;;;;17.91;100.00;100421.50;5132743;27;20034;-67
2021/09/28 01:11:57;;;;;;;34.30;24.58;;;;;;;17.87;100.00;100417.47;5132856;27;20027;-67
2021/09/28 01:14:23;;;;;;;32.25;25.63;;;;;;;17.84;100.00;100421.38;5133024;27;20039;-67
2021/09/28 01:16:48;;;;;;;32.03;25.80;;;;;;;17.80;100.00;100411.91;5132099;27;20088;-67
2021/09/28 01:19:14;;;;;;;32.42;24.48;;;;;;;17.79;100.00;100412.94;5132411;27;20581;-67
2021/09/28 01:21:40;;;;;;;34.20;25.38;;;;;;;17.79;100.00;100420.22;5132646;27;20038;-67
2021/09/28 01:24:06;;;;;;;30.92;24.90;;;;;;;17.76;100.00;100417.84;5132438;27;20031;-67
2021/09/28 01:26:33;;;;;;;34.35;26.65;;;;;;;17.74;100.00;100406.38;5132371;27;20045;-68
2021/09/28 01:29:00;;;;;;;28.02;24.88;;;;;;;17.71;100.00;100409.44;5132323;27;20031;-68
2021/09/28 01:31:26;;;;;;;33.65;25.85;;;;;;;17.69;100.00;100415.03;5132073;27;20402;-68
2021/09/28 01:33:52;;;;;;;35.45;27.65;;;;;;;17.69;100.00;100414.19;5132689;27;20019;-67
2021/09/28 01:36:17;;;;;;;33.00;25.88;;;;;;;17.67;100.00;100410.81;5132219;27;20047;-67
2021/09/28 01:38:43;;;;;;;30.55;23.70;;;;;;;17.67;100.00;100406.22;5130846;27;20027;-68
2021/09/28 01:41:09;;;;;;;37.25;26.67;;;;;;;17.67;100.00;100402.69;5132158;27;20027;-67
2021/09/28 01:43:35;;;;;;;29.75;23.25;;;;;;;17.66;100.00;100409.97;5130853;27;20031;-67
2021/09/28 01:46:03;;;;;;;27.98;23.92;;;;;;;17.66;100.00;100412.66;5131766;27;20034;-67
2021/09/28 01:49:02;;;;;;;31.60;25.55;;;;;;;17.68;100.00;100417.91;5131975;27;20037;-67
2021/09/28 01:51:28;;;;;;;32.90;25.42;;;;;;;17.64;100.00;100405.75;5097115;27;20534;-68
2021/09/28 01:53:53;;;;;;;28.77;23.60;;;;;;;17.62;100.00;100414.06;5132194;27;20035;-67
2021/09/28 01:56:20;;;;;;;31.60;25.38;;;;;;;17.56;100.00;100403.91;5131734;27;20086;-68
2021/09/28 01:58:47;;;;;;;28.77;24.58;;;;;;;17.57;100.00;100416.44;5131665;27;20475;-67
2021/09/28 02:01:12;;;;;;;34.13;24.85;;;;;;;17.55;100.00;100414.94;5131787;27;20035;-67
2021/09/28 02:03:38;;;;;;;28.75;23.80;;;;;;;17.53;100.00;100411.53;5130496;27;20022;-67
2021/09/28 02:06:03;;;;;;;30.38;24.50;;;;;;;17.53;100.00;100412.41;5131773;27;20031;-67
2021/09/28 02:08:29;;;;;;;32.28;26.48;;;;;;;17.54;100.00;100421.38;5131528;27;20114;-67
2021/09/28 02:10:54;;;;;;;31.60;25.95;;;;;;;17.49;100.00;100411.06;5132250;27;20026;-67
2021/09/28 02:13:20;;;;;;;29.23;25.08;;;;;;;17.54;100.00;100421.38;5131814;27;20034;-68
2021/09/28 02:15:45;;;;;;;33.45;24.80;;;;;;;17.55;100.00;100414.94;5131609;27;20022;-68
2021/09/28 02:18:11;;;;;;;31.60;25.00;;;;;;;17.53;100.00;100406.97;5131360;27;20487;-68
2021/09/28 02:20:37;;;;;;;31.02;25.13;;;;;;;17.54;100.00;100411.38;5131475;27;20027;-68
2021/09/28 02:23:02;;;;;;;30.98;24.75;;;;;;;17.54;100.00;100408.66;5131799;27;20060;-68
2021/09/28 02:25:28;;;;;;;27.52;22.70;;;;;;;17.53;100.00;100406.97;5131415;27;20062;-67
2021/09/28 02:27:54;;;;;;;28.55;24.30;;;;;;;17.54;100.00;100407.84;5131511;27;20026;-68
2021/09/28 02:30:19;;;;;;;29.42;23.98;;;;;;;17.57;100.00;100410.16;5130090;27;20560;-67
2021/09/28 02:32:45;;;;;;;30.50;23.95;;;;;;;17.54;100.00;100407.84;5130110;27;20035;-67
2021/09/28 02:35:10;;;;;;;29.42;24.73;;;;;;;17.51;100.00;100416.31;5131351;27;20345;-68
2021/09/28 02:37:36;;;;;;;30.83;25.23;;;;;;;17.49;100.00;100415.63;5131097;27;20048;-67
2021/09/28 02:40:03;;;;;;;30.27;25.48;;;;;;;17.51;100.00;100419.84;5131038;27;20076;-67
2021/09/28 02:42:28;;;;;;;30.75;24.85;;;;;;;17.53;100.00;100416.97;5130903;27;20755;-67
2021/09/28 02:44:55;;;;;;;30.42;24.90;;;;;;;17.52;100.00;100415.28;5131293;27;20031;-68
2021/09/28 02:47:25;;;;;;;30.38;22.98;;;;;;;17.47;100.00;100406.81;5131005;27;20027;-67
2021/09/28 02:49:51;;;;;;;30.73;25.13;;;;;;;17.47;100.00;100407.69;5129525;27;20060;-68
2021/09/28 02:52:17;;;;;;;34.45;26.73;;;;;;;17.45;100.00;100406.16;5130887;27;20027;-68
2021/09/28 02:54:42;;;;;;;29.67;23.85;;;;;;;17.40;100.00;100409.38;5130894;27;20027;-68
2021/09/28 02:57:08;;;;;;;31.67;24.92;;;;;;;17.42;100.00;100409.19;5130868;27;20449;-67
2021/09/28 02:59:34;;;;;;;32.28;25.35;;;;;;;17.37;100.00;100409.72;5130685;27;20023;-68
2021/09/28 03:02:00;;;;;;;30.73;24.80;;;;;;;17.38;100.00;100414.13;5130639;27;20035;-67
2021/09/28 03:04:25;;;;;;;37.03;25.95;;;;;;;17.36;100.00;100415.31;5131077;27;20106;-68
2021/09/28 03:06:51;;;;;;;33.33;26.05;;;;;;;17.33;100.00;100415.66;5130588;27;20019;-67
2021/09/28 03:09:17;;;;;;;30.95;24.83;;;;;;;17.37;100.00;100404.31;5130415;27;20023;-68
2021/09/28 03:11:42;;;;;;;31.77;24.67;;;;;;;17.41;100.00;100413.78;5130810;27;20039;-67
2021/09/28 03:14:08;;;;;;;28.08;24.02;;;;;;;17.43;100.00;100414.47;5130911;27;20108;-67
2021/09/28 03:16:33;;;;;;;34.55;25.55;;;;;;;17.41;100.00;100421.06;5130548;27;20096;-67
2021/09/28 03:18:59;;;;;;;29.23;23.73;;;;;;;17.36;100.00;100415.31;5130549;27;20038;-67
2021/09/28 03:21:24;;;;;;;28.20;23.52;;;;;;;17.38;100.00;100422.25;5130956;27;20076;-68
2021/09/28 03:23:50;;;;;;;28.45;24.15;;;;;;;17.37;100.00;100417.00;5130498;27;20035;-67
2021/09/28 03:26:15;;;;;;;30.88;24.80;;;;;;;17.36;100.00;100421.59;5130498;27;20027;-68
2021/09/28 03:28:41;;;;;;;32.75;24.95;;;;;;;17.36;100.00;100415.31;5129322;27;20035;-68
2021/09/28 03:31:06;;;;;;;30.45;25.60;;;;;;;17.39;100.00;100420.41;5130531;27;20026;-68
2021/09/28 03:33:32;;;;;;;28.48;24.75;;;;;;;17.35;100.00;100419.06;5130653;27;20035;-67
2021/09/28 03:35:57;;;;;;;31.55;25.77;;;;;;;17.37;100.00;100420.56;5130746;27;20772;-67
2021/09/28 03:38:23;;;;;;;32.47;26.02;;;;;;;17.38;100.00;100427.66;5130325;27;20026;-68
2021/09/28 03:40:48;;;;;;;31.45;25.60;;;;;;;17.32;100.00;100414.81;5128974;28;20037;-67
2021/09/28 03:43:14;;;;;;;31.92;25.70;;;;;;;17.32;100.00;100422.13;5129116;28;20077;-68
2021/09/28 03:45:39;;;;;;;30.58;25.55;;;;;;;17.32;100.00;100420.22;5130406;27;20023;-67
2021/09/28 03:48:06;;;;;;;33.92;26.25;;;;;;;17.35;100.00;100428.03;5130295;27;20015;-68
2021/09/28 03:50:32;;;;;;;30.75;24.92;;;;;;;17.37;100.00;100427.84;5129026;28;20558;-67
2021/09/28 03:52:57;;;;;;;35.92;26.00;;;;;;;17.37;100.00;100430.56;5129136;28;20028;-68
2021/09/28 03:55:23;;;;;;;33.08;26.45;;;;;;;17.37;100.00;100434.13;5130106;27;20023;-67
2021/09/28 03:57:50;;;;;;;34.03;26.40;;;;;;;17.38;100.00;100433.09;5130151;27;20489;-68
2021/09/28 04:00:18;;;;;;;30.40;25.70;;;;;;;17.38;100.00;100437.69;5130206;27;20023;-68
2021/09/28 04:02:43;;;;;;;28.75;24.70;;;;;;;17.38;100.00;100435.81;5130005;27;20067;-67
2021/09/28 04:05:09;;;;;;;31.45;25.70;;;;;;;17.39;100.00;100436.66;5129754;27;20054;-67
2021/09/28 04:07:35;;;;;;;32.83;26.45;;;;;;;17.36;100.00;100437.00;5129604;27;20019;-68
2021/09/28 04:10:06;;;;;;;33.90;26.63;;;;;;;17.35;100.00;100435.34;5127118;27;20023;-67
2021/09/28 04:12:32;;;;;;;34.45;26.52;;;;;;;17.36;100.00;100450.56;5129842;27;20031;-68
2021/09/28 04:14:59;;;;;;;32.17;26.05;;;;;;;17.35;100.00;100444.28;5131099;27;20023;-67
2021/09/28 04:17:25;;;;;;;31.10;25.42;;;;;;;17.37;100.00;100450.41;5133020;27;20047;-67
2021/09/28 04:19:51;;;;;;;36.70;27.50;;;;;;;17.35;100.00;100448.88;5133155;27;20546;-67
2021/09/28 04:22:17;;;;;;;33.15;27.38;;;;;;;17.35;100.00;100451.59;5132678;27;20027;-68
2021/09/28 04:24:43;;;;;;;31.98;27.02;;;;;;;17.31;100.00;100445.66;5130672;27;20027;-67
2021/09/28 04:27:10;;;;;;;29.38;26.08;;;;;;;17.32;100.00;100447.34;5132947;27;20030;-67
2021/09/28 04:29:37;;;;;;;36.10;27.15;;;;;;;17.33;100.00;100450.91;5132319;27;20066;-67
2021/09/28 04:32:03;;;;;;;34.25;26.95;;;;;;;17.35;100.00;100449.72;5132227;27;20049;-67
2021/09/28 04:34:28;;;;;;;36.33;27.92;;;;;;;17.39;100.00;100450.22;5133567;27;20039;-68
2021/09/28 04:36:54;;;;;;;33.05;26.63;;;;;;;17.35;100.00;100446.19;5132389;27;20018;-67
2021/09/28 04:39:19;;;;;;;36.90;27.20;;;;;;;17.32;100.00;100446.53;5133009;27;20030;-68
2021/09/28 04:41:45;;;;;;;35.35;27.23;;;;;;;17.34;100.00;100450.75;5133298;27;20019;-67
2021/09/28 04:44:10;;;;;;;35.65;28.73;;;;;;;17.34;100.00;100458.88;5131486;27;20062;-67
2021/09/28 04:46:35;;;;;;;31.92;26.95;;;;;;;17.31;100.00;100445.66;5131468;27;20027;-67
2021/09/28 04:49:01;;;;;;;34.72;28.45;;;;;;;17.33;100.00;100453.63;5133458;27;20398;-68
2021/09/28 04:51:26;;;;;;;33.40;27.88;;;;;;;17.31;100.00;100447.53;5133230;27;20390;-68
2021/09/28 04:53:52;;;;;;;39.20;28.67;;;;;;;17.36;100.00;100456.84;5133450;27;20484;-67
2021/09/28 04:56:18;;;;;;;34.80;27.80;;;;;;;17.37;100.00;100458.53;5131588;27;20023;-67
2021/09/28 04:58:43;;;;;;;33.55;27.77;;;;;;;17.38;100.00;100456.69;5133379;27;20031;-68
2021/09/28 05:01:08;;;;;;;35.22;26.25;;;;;;;17.38;100.00;100462.09;5131398;27;20053;-67
2021/09/28 05:03:34;;;;;;;34.08;26.92;;;;;;;17.35;100.00;100462.44;5133389;27;20092;-67
2021/09/28 05:05:59;;;;;;;33.33;27.55;;;;;;;17.33;100.00;100453.63;5133198;27;20023;-67
2021/09/28 05:08:25;;;;;;;32.03;26.20;;;;;;;17.36;100.00;100464.97;5132873;27;20081;-67
2021/09/28 05:10:50;;;;;;;33.78;27.63;;;;;;;17.38;100.00;100468.34;5132862;27;20030;-67
2021/09/28 05:13:16;;;;;;;34.83;27.27;;;;;;;17.39;100.00;100464.63;5132973;27;20451;-67
2021/09/28 05:15:42;;;;;;;36.22;27.23;;;;;;;17.38;100.00;100468.34;5132806;27;20079;-67
2021/09/28 05:18:07;;;;;;;34.20;27.17;;;;;;;17.38;100.00;100471.06;5132647;27;20088;-67
2021/09/28 05:20:33;;;;;;;35.58;28.88;;;;;;;17.37;100.00;100463.09;5132702;27;20042;-67
2021/09/28 05:22:59;;;;;;;38.75;28.42;;;;;;;17.38;100.00;100471.06;5132740;27;20099;-67
2021/09/28 05:25:27;;;;;;;33.75;27.30;;;;;;;17.42;100.00;100482.41;5132759;27;20034;-67
2021/09/28 05:27:53;;;;;;;36.15;28.85;;;;;;;17.41;100.00;100478.03;5131230;27;20363;-67
2021/09/28 05:30:19;;;;;;;33.05;26.90;;;;;;;17.41;100.00;100478.84;5132714;27;20057;-68
2021/09/28 05:32:44;;;;;;;33.10;26.88;;;;;;;17.41;100.00;100478.84;5131193;27;20525;-68
2021/09/28 05:35:10;;;;;;;32.72;26.73;;;;;;;17.44;100.00;100485.81;5132250;27;20393;-67
2021/09/28 05:37:36;;;;;;;28.40;24.80;;;;;;;17.44;100.00;100485.81;5132258;27;20023;-67
2021/09/28 05:40:04;;;;;;;28.45;24.60;;;;;;;17.46;100.00;100486.50;5131192;27;20463;-68
2021/09/28 05:42:29;;;;;;;29.83;24.63;;;;;;;17.43;100.00;100485.00;5131086;27;20031;-67
2021/09/28 05:44:55;;;;;;;31.23;25.15;;;;;;;17.45;100.00;100490.25;5132175;27;20031;-67
2021/09/28 05:47:20;;;;;;;30.35;25.52;;;;;;;17.44;100.00;100483.09;5131639;27;20216;-68
2021/09/28 05:49:46;;;;;;;29.27;23.67;;;;;;;17.47;100.00;100482.75;5131638;27;20037;-68
2021/09/28 05:52:13;;;;;;;29.95;23.60;;;;;;;17.46;100.00;100476.50;5131827;27;20099;-67
2021/09/28 05:54:47;;;;;;;27.08;22.48;;;;;;;17.50;100.00;100479.69;5131968;27;20042;-67
2021/09/28 05:57:20;;;;;;;27.27;23.35;;;;;;;17.50;100.00;100482.41;5131922;27;20098;-67
2021/09/28 05:59:46;;;;;;;25.33;22.27;;;;;;;17.53;100.00;100487.47;5131804;27;20494;-67
2021/09/28 06:02:17;;;;;;;26.55;21.88;;;;;;;17.54;100.00;100497.34;5131678;27;20029;-67
2021/09/28 06:04:43;;;;;;;25.50;20.33;;;;;;;17.57;100.00;100496.94;5131864;27;20113;-67
2021/09/28 06:07:09;;;;;;;23.88;21.17;;;;;;;17.58;100.00;100491.34;5131484;27;20462;-67
2021/09/28 06:09:38;;;;;;;27.25;20.92;;;;;;;17.61;100.00;100501.03;5131925;27;20117;-67
2021/09/28 06:12:08;;;;;;;24.05;20.88;;;;;;;17.63;100.00;100498.97;5132000;27;20427;-68
2021/09/28 06:14:34;;;;;;;24.33;20.98;;;;;;;17.69;100.00;100498.28;5131880;27;20054;-68
2021/09/28 06:17:00;;;;;;;25.13;19.35;;;;;;;17.73;100.00;100499.59;5131135;27;20039;-68
2021/09/28 06:19:27;;;;;;;24.75;19.63;;;;;;;17.75;100.00;100503.00;5130201;27;20031;-67
2021/09/28 06:21:54;;;;;;;22.77;19.02;;;;;;;17.77;100.00;100507.22;5130011;27;20062;-67
2021/09/28 06:24:19;;;;;;;21.90;18.15;;;;;;;17.83;100.00;100511.09;5131421;27;20446;-67
2021/09/28 06:26:46;;;;;;;22.60;19.80;;;;;;;17.84;100.00;100507.38;5131380;27;20062;-67
2021/09/28 06:29:15;;;;;;;22.77;18.23;;;;;;;17.87;100.00;100510.56;5131388;27;20039;-68
2021/09/28 06:31:42;;;;;;;21.80;17.48;;;;;;;17.83;100.00;100497.53;5131082;27;20035;-67
2021/09/28 06:34:08;;;;;;;24.73;18.40;;;;;;;18.02;100.00;100516.94;5131227;27;20035;-67
2021/09/28 06:36:34;;;;;;;24.15;18.55;;;;;;;18.11;100.00;100517.75;5131182;27;20094;-67
2021/09/28 06:38:59;;;;;;;22.10;18.60;;;;;;;18.22;100.00;100517.38;5131002;27;20469;-67
2021/09/28 06:41:27;;;;;;;20.40;17.60;;;;;;;18.33;100.00;100513.38;5131170;27;20060;-67
2021/09/28 06:43:53;;;;;;;21.65;17.00;;;;;;;18.40;100.00;100514.38;5130943;27;20470;-67
2021/09/28 06:46:19;;;;;;;21.80;17.38;;;;;;;18.47;100.00;100516.19;5130876;27;20075;-67
2021/09/28 06:48:45;;;;;;;20.48;16.77;;;;;;;18.52;100.00;100513.78;5131256;27;20556;-67
2021/09/28 06:51:11;;;;;;;25.00;16.60;;;;;;;18.59;100.00;100525.63;5130876;27;20039;-67
2021/09/28 06:53:36;;;;;;;20.17;16.52;;;;;;;18.61;100.00;100520.00;5131095;27;20031;-67
2021/09/28 06:56:02;;;;;;;24.60;17.10;;;;;;;18.65;100.00;100524.91;5130904;27;20073;-67
2021/09/28 06:58:27;;;;;;;21.80;17.35;;;;;;;18.67;100.00;100519.28;5130806;27;20023;-68
2021/09/28 07:00:53;;;;;;;24.05;17.42;;;;;;;18.70;100.00;100525.19;5129421;27;20035;-67
2021/09/28 07:03:20;;;;;;;18.33;15.27;;;;;;;18.73;100.00;100530.25;5131003;27;20076;-67
2021/09/28 07:05:46;;;;;;;19.42;16.02;;;;;;;18.76;100.00;100529.91;5130990;27;20363;-67
2021/09/28 07:08:11;;;;;;;20.27;15.25;;;;;;;18.76;100.00;100524.47;5130518;27;20023;-67
2021/09/28 07:10:36;;;;;;;19.95;14.85;;;;;;;18.77;100.00;100533.47;5131005;27;20027;-68
2021/09/28 07:13:02;;;;;;;22.05;15.35;;;;;;;18.81;100.00;100532.94;5130555;27;20022;-68
2021/09/28 07:15:28;;;;;;;19.80;16.27;;;;;;;18.85;100.00;100539.69;5129335;28;21006;-68
2021/09/28 07:17:54;;;;;;;19.42;15.27;;;;;;;18.82;100.00;100531.91;5130381;27;20031;-67
2021/09/28 07:20:20;;;;;;;20.88;16.58;;;;;;;18.85;100.00;100542.41;5129363;28;20031;-67
2021/09/28 07:22:46;;;;;;;23.15;16.52;;;;;;;18.85;100.00;100542.41;5130511;27;20019;-67
2021/09/28 07:25:11;;;;;;;21.33;16.17;;;;;;;18.86;100.00;100541.38;5130542;27;20057;-67
2021/09/28 07:27:37;;;;;;;22.92;16.50;;;;;;;18.88;100.00;100547.47;5130714;27;20108;-67
2021/09/28 07:30:04;;;;;;;20.42;16.38;;;;;;;18.88;100.00;100544.75;5130452;28;20109;-67
2021/09/28 07:32:29;;;;;;;19.88;15.30;;;;;;;18.88;100.00;100544.75;5129110;27;20697;-67
2021/09/28 07:34:55;;;;;;;19.33;15.32;;;;;;;18.91;100.00;100555.28;5129078;27;20068;-67
2021/09/28 07:37:26;;;;;;;19.02;15.68;;;;;;;18.93;100.00;100558.63;5130506;27;20019;-67
2021/09/28 07:39:51;;;;;;;18.00;15.50;;;;;;;18.96;100.00;100576.47;5130561;27;20050;-67
2021/09/28 07:42:17;;;;;;;16.90;14.90;;;;;;;18.95;100.00;100577.47;5128837;28;20058;-67
2021/09/28 07:44:42;;;;;;;17.90;14.65;;;;;;;18.97;100.00;100572.72;5130541;27;20075;-67
2021/09/28 07:47:08;;;;;;;18.67;15.55;;;;;;;18.99;100.00;100581.56;5130565;27;20046;-67
2021/09/28 07:49:33;;;;;;;19.20;15.68;;;;;;;18.96;100.00;100580.03;5131196;27;20118;-67
2021/09/28 07:51:59;;;;;;;18.25;14.07;;;;;;;18.92;99.66;100575.97;5134234;27;20042;-67
2021/09/28 07:54:25;;;;;;;17.70;15.05;;;;;;;18.90;98.75;100583.50;5134285;27;20092;-67
2021/09/28 07:56:50;;;;;;;17.15;14.07;;;;;;;18.88;98.60;100577.38;5134197;27;20466;-67
2021/09/28 07:59:16;;;;;;;19.95;15.23;;;;;;;18.88;98.80;100579.25;5134215;27;20035;-67
2021/09/28 08:01:41;;;;;;;19.27;15.30;;;;;;;18.86;98.74;100586.75;5132854;27;20549;-67
2021/09/28 08:04:06;;;;;;;16.52;14.48;;;;;;;18.84;99.42;100597.81;5134424;27;20102;-67
2021/09/28 08:06:32;;;;;;;17.75;14.35;;;;;;;18.79;99.86;100591.19;5134189;27;20164;-67
2021/09/28 08:08:57;;;;;;;17.67;14.75;;;;;;;18.81;100.00;100600.03;5132528;27;20398;-67
2021/09/28 08:11:23;;;;;;;18.17;15.52;;;;;;;18.80;100.00;100607.31;5133936;27;20399;-67
2021/09/28 08:13:48;;;;;;;24.55;15.95;;;;;;;18.78;100.00;100600.38;5132571;27;20035;-67
2021/09/28 08:16:14;;;;;;;20.25;15.05;;;;;;;18.80;100.00;100607.31;5133836;27;20096;-67
2021/09/28 08:18:39;;;;;;;17.80;14.82;;;;;;;18.83;100.00;100611.56;5133947;27;20056;-67
2021/09/28 08:21:05;;;;;;;21.40;15.15;;;;;;;18.83;100.00;100614.28;5133842;27;20023;-68
2021/09/28 08:23:31;;;;;;;21.10;15.88;;;;;;;18.81;100.00;100616.31;5133659;27;20035;-67
2021/09/28 08:31:08;;;;;;;17.45;14.07;;;;;;;18.98;100.00;100617.91;5133927;27;20504;-67
2021/09/28 08:33:34;;;;;;;20.48;15.15;;;;;;;19.00;99.41;100616.72;5133598;27;20031;-67
2021/09/28 08:36:00;;;;;;;29.52;14.50;;;;;;;19.10;98.18;100617.31;5133485;27;20031;-67
2021/09/28 08:38:28;;;;;;;20.10;14.73;;;;;;;19.18;97.55;100619.09;5133247;27;20076;-67
2021/09/28 08:40:54;;;;;;;21.35;15.63;;;;;;;19.27;97.12;100612.59;5133460;27;20517;-67
2021/09/28 08:43:20;;;;;;;18.52;14.02;;;;;;;19.54;96.32;100610.13;5133463;27;20474;-67
2021/09/28 08:45:45;;;;;;;17.08;14.30;;;;;;;20.23;93.83;100617.06;5133604;27;20029;-67
2021/09/28 08:48:15;;;;;;;18.35;13.57;;;;;;;20.54;90.00;100619.53;5133815;27;20017;-67
2021/09/28 08:50:45;;;;;;;17.23;12.55;;;;;;;20.68;86.84;100613.19;5132242;27;20035;-67
2021/09/28 08:53:16;;;;;;;16.88;12.65;;;;;;;20.79;85.46;100621.72;5133123;27;20053;-67
2021/09/28 08:55:42;;;;;;;16.95;12.75;;;;;;;20.83;83.93;100612.09;5133463;27;20070;-68
2021/09/28 08:58:24;;;;;;;17.13;12.00;;;;;;;20.85;84.05;100617.38;5131715;27;20043;-67
2021/09/28 09:00:53;;;;;;;17.33;11.50;;;;;;;20.83;84.07;100614.84;5132757;27;20023;-67
2021/09/28 09:03:30;;;;;;;16.88;12.13;;;;;;;20.91;83.67;100608.41;5132838;27;20027;-67
2021/09/28 09:06:00;;;;;;;15.45;12.65;;;;;;;20.96;83.71;100603.28;5132792;27;20031;-67
2021/09/28 09:08:35;;;;;;;15.55;12.77;;;;;;;21.11;83.65;100610.34;5132748;27;20080;-67
2021/09/28 09:11:12;;;;;;;17.25;12.52;;;;;;;21.36;83.55;100613.50;5132878;27;20034;-68
2021/09/28 09:13:47;;;;;;;15.57;12.02;;;;;;;21.48;82.14;100604.56;5132768;27;20076;-67
2021/09/28 09:16:15;;;;;;;17.00;12.43;;;;;;;21.97;79.72;100607.28;5132856;27;20068;-67
2021/09/28 09:18:43;;;;;;;13.63;11.48;;;;;;;22.18;78.61;100607.16;5132832;27;20559;-67
2021/09/28 09:21:10;;;;;;;14.07;12.35;;;;;;;22.29;77.77;100609.34;5132615;27;20050;-67
2021/09/28 09:23:37;;;;;;;16.27;11.77;;;;;;;22.37;77.66;100598.22;5132557;27;20498;-67
2021/09/28 09:26:17;;;;;;;14.35;12.68;;;;;;;22.58;76.50;100589.94;5132473;27;20509;-67
2021/09/28 09:28:45;;;;;;;12.65;10.90;;;;;;;22.79;75.56;100589.78;5132688;27;20031;-67
2021/09/28 09:31:34;;;;;;;15.40;11.88;;;;;;;23.12;75.70;100589.84;5131280;27;20023;-67
2021/09/28 09:34:10;;;;;;;13.20;11.23;;;;;;;23.43;72.31;100590.94;5132373;27;20027;-67
2021/09/28 09:36:37;;;;;;;12.75;10.98;;;;;;;23.51;69.93;100589.91;5132510;27;20439;-67
2021/09/28 09:39:05;;;;;;;13.45;11.15;;;;;;;23.47;69.04;100585.91;5132083;27;20035;-67
2021/09/28 09:41:32;;;;;;;13.95;10.82;;;;;;;23.38;69.01;100577.03;5132287;27;20015;-67
2021/09/28 09:44:12;;;;;;;11.38;9.95;;;;;;;23.21;70.08;100578.47;5130778;27;20118;-67
2021/09/28 09:46:50;;;;;;;14.73;11.38;;;;;;;23.01;71.34;100569.41;5132179;27;20084;-67
2021/09/28 09:49:22;;;;;;;12.27;11.00;;;;;;;22.86;72.11;100565.19;5132382;27;20110;-67
2021/09/28 09:51:50;;;;;;;15.13;11.75;;;;;;;22.69;73.24;100566.63;5132087;27;20023;-67
2021/09/28 09:54:16;;;;;;;15.38;11.80;;;;;;;22.52;74.57;100563.41;5132147;27;20027;-67
2021/09/28 09:56:50;;;;;;;12.98;10.98;;;;;;;22.39;75.75;100571.53;5132211;27;20466;-67
2021/09/28 09:59:21;;;;;;;12.32;11.10;;;;;;;22.26;77.18;100580.53;5132180;27;20023;-67
2021/09/28 10:01:48;;;;;;;13.40;11.60;;;;;;;22.16;78.02;100579.22;5131910;27;20031;-67
2021/09/28 10:04:16;;;;;;;14.63;12.20;;;;;;;22.08;79.48;100576.66;5131931;27;20031;-67
2021/09/28 10:06:42;;;;;;;14.80;10.90;;;;;;;22.07;80.10;100580.44;5131708;27;20458;-67
2021/09/28 10:09:19;;;;;;;13.00;11.63;;;;;;;22.09;79.81;100594.75;5131657;27;20061;-67
2021/09/28 10:11:49;;;;;;;13.07;11.27;;;;;;;22.13;79.35;100598.75;5131213;27;20027;-67
2021/09/28 10:14:39;;;;;;;16.83;11.05;;;;;;;22.19;77.31;100595.22;5131825;27;20538;-67
2021/09/28 10:17:20;;;;;;;16.00;11.50;;;;;;;22.19;77.48;100596.03;5130012;27;20085;-67
2021/09/28 10:19:54;;;;;;;14.88;11.13;;;;;;;22.16;77.14;100581.97;5131955;27;20546;-67
2021/09/28 10:22:49;;;;;;;13.25;11.57;;;;;;;22.19;77.79;100589.75;5131577;27;20023;-67
2021/09/28 10:25:20;;;;;;;13.38;11.75;;;;;;;22.26;78.16;100585.16;5131574;27;20064;-67
2021/09/28 10:27:59;;;;;;;13.68;11.57;;;;;;;22.23;77.61;100582.81;5130490;27;20383;-67
2021/09/28 10:30:31;;;;;;;15.75;12.48;;;;;;;22.22;76.82;100589.34;5131370;27;20062;-67
2021/09/28 10:32:57;;;;;;;13.18;11.57;;;;;;;22.17;76.72;100580.91;5131731;27;20087;-67
2021/09/28 10:35:24;;;;;;;13.68;11.63;;;;;;;22.14;77.35;100579.44;5129682;27;20031;-67
2021/09/28 10:37:55;;;;;;;17.05;12.88;;;;;;;22.10;78.12;100577.31;5131272;27;20019;-67
2021/09/28 10:40:20;;;;;;;16.63;12.18;;;;;;;22.06;78.25;100587.78;5131150;27;20073;-67
2021/09/28 10:43:07;;;;;;;16.83;12.45;;;;;;;22.03;78.79;100587.34;5131426;27;20132;-67
2021/09/28 10:45:32;;;;;;;14.10;11.75;;;;;;;22.01;77.70;100592.16;5129540;27;20054;-67
2021/09/28 10:48:07;;;;;;;13.82;11.32;;;;;;;21.98;77.89;100587.09;5131020;27;20015;-67
2021/09/28 10:50:41;;;;;;;14.50;12.45;;;;;;;22.01;77.74;100597.63;5131060;27;20023;-67
2021/09/28 10:53:18;;;;;;;15.10;12.80;;;;;;;21.97;77.85;100590.88;5130984;27;20027;-67
2021/09/28 10:55:56;;;;;;;13.90;12.15;;;;;;;21.94;78.88;100594.88;5130865;27;20035;-67
2021/09/28 10:58:22;;;;;;;16.08;12.05;;;;;;;21.92;79.19;100590.63;5130879;27;20080;-67
2021/09/28 11:00:53;;;;;;;15.77;12.50;;;;;;;21.92;78.84;100602.41;5131428;27;20542;-67
2021/09/28 11:03:41;;;;;;;14.52;12.68;;;;;;;21.93;79.47;100597.81;5131164;27;20030;-67
2021/09/28 11:06:08;;;;;;;15.05;12.25;;;;;;;21.92;78.74;100599.69;5130812;27;20107;-67
2021/09/28 11:08:37;;;;;;;14.15;12.25;;;;;;;21.95;78.48;100604.75;5130483;27;20592;-67
2021/09/28 11:11:09;;;;;;;13.80;12.38;;;;;;;21.98;78.40;100600.75;5129285;27;20062;-67